createdAt,value
2023-05-11T00:01:24.495Z,11.09
2023-05-11T00:03:51.758Z,11.19
2023-05-11T00:06:18.873Z,11.26
2023-05-11T00:08:46.092Z,11.14
2023-05-11T00:11:13.171Z,11.04
2023-05-11T00:13:40.368Z,11.04
2023-05-11T00:16:07.683Z,11.04
2023-05-11T00:18:34.818Z,11.06
2023-05-11T00:21:02.308Z,11.02
2023-05-11T00:23:29.322Z,11.08
2023-05-11T00:25:56.385Z,11.11
2023-05-11T00:28:23.560Z,11.06
2023-05-11T00:30:55.151Z,11.01
2023-05-11T00:33:22.445Z,11.15
2023-05-11T00:35:49.721Z,11.19
2023-05-11T00:38:16.890Z,11.20
2023-05-11T00:40:43.938Z,11.18
2023-05-11T00:43:11.098Z,11.18
2023-05-11T00:45:39.823Z,11.12
2023-05-11T00:48:07.121Z,11.13
2023-05-11T00:50:34.817Z,11.14
2023-05-11T00:53:02.558Z,11.18
2023-05-11T00:55:30.252Z,11.19
2023-05-11T00:57:57.408Z,11.20
2023-05-11T01:00:24.581Z,11.21
2023-05-11T01:02:52.810Z,11.17
2023-05-11T01:05:20.223Z,11.20
2023-05-11T01:07:54.402Z,11.21
2023-05-11T01:10:28.130Z,11.08
2023-05-11T01:13:14.601Z,11.06
2023-05-11T01:15:46.485Z,11.15
2023-05-11T01:18:21.424Z,11.14
2023-05-11T01:20:50.000Z,11.15
2023-05-11T01:23:24.973Z,11.08
2023-05-11T01:25:52.553Z,11.14
2023-05-11T01:28:25.984Z,11.14
2023-05-11T01:31:05.137Z,11.01
2023-05-11T01:33:33.624Z,10.89
2023-05-11T01:36:03.812Z,10.86
2023-05-11T01:38:33.562Z,11.01
2023-05-11T01:41:01.277Z,10.79
2023-05-11T01:43:30.354Z,10.61
2023-05-11T01:46:00.065Z,10.62
2023-05-11T01:48:29.112Z,10.72
2023-05-11T01:51:00.353Z,10.65
2023-05-11T01:53:29.800Z,10.76
2023-05-11T01:55:58.133Z,10.78
2023-05-11T01:58:26.045Z,10.67
2023-05-11T02:00:55.153Z,10.64
2023-05-11T02:03:23.023Z,10.69
2023-05-11T02:05:50.836Z,10.62
2023-05-11T02:08:18.417Z,10.71
2023-05-11T02:10:47.145Z,10.66
2023-05-11T02:13:15.300Z,10.75
2023-05-11T02:15:43.194Z,10.86
2023-05-11T02:18:12.292Z,10.74
2023-05-11T02:20:41.909Z,10.73
2023-05-11T02:23:09.989Z,10.69
2023-05-11T02:25:40.687Z,10.69
2023-05-11T02:28:08.358Z,10.78
2023-05-11T02:30:39.346Z,10.75
2023-05-11T02:33:08.388Z,10.64
2023-05-11T02:35:42.193Z,10.66
2023-05-11T02:38:10.442Z,10.58
2023-05-11T02:40:45.740Z,10.65
2023-05-11T02:43:15.516Z,10.61
2023-05-11T02:45:52.660Z,10.50
2023-05-11T02:48:22.672Z,10.39
2023-05-11T02:50:51.472Z,10.36
2023-05-11T02:53:19.924Z,10.38
2023-05-11T02:55:47.242Z,10.35
2023-05-11T02:58:15.069Z,10.34
2023-05-11T03:00:47.939Z,10.22
2023-05-11T03:03:15.207Z,10.25
2023-05-11T03:05:42.591Z,10.22
2023-05-11T03:08:09.651Z,10.16
2023-05-11T03:10:36.746Z,10.24
2023-05-11T03:13:04.132Z,10.38
2023-05-11T03:15:31.378Z,10.36
2023-05-11T03:18:00.935Z,10.41
2023-05-11T03:20:28.203Z,10.19
2023-05-11T03:22:55.940Z,10.20
2023-05-11T03:25:24.804Z,10.16
2023-05-11T03:27:53.330Z,10.12
2023-05-11T03:30:21.058Z,10.27
2023-05-11T03:32:50.846Z,10.25
2023-05-11T03:35:18.102Z,10.26
2023-05-11T03:37:45.948Z,10.19
2023-05-11T03:40:14.760Z,10.09
2023-05-11T03:42:51.278Z,10.12
2023-05-11T03:45:20.485Z,10.14
2023-05-11T03:47:51.426Z,10.12
2023-05-11T03:50:19.732Z,10.16
2023-05-11T03:52:47.777Z,10.18
2023-05-11T03:55:15.006Z,10.12
2023-05-11T03:57:42.970Z,10.11
2023-05-11T04:00:10.505Z,9.98
2023-05-11T04:02:42.855Z,9.94
2023-05-11T04:05:12.351Z,9.91
2023-05-11T04:07:40.366Z,10.01
2023-05-11T04:10:07.834Z,9.95
2023-05-11T04:12:34.938Z,9.97
2023-05-11T04:15:02.146Z,9.97
2023-05-11T04:17:29.236Z,10.05
2023-05-11T04:19:56.333Z,10.15
2023-05-11T04:22:23.647Z,10.13
2023-05-11T04:24:50.736Z,10.24
2023-05-11T04:27:17.816Z,9.97
2023-05-11T04:29:45.043Z,10.05
2023-05-11T04:32:12.143Z,10.16
2023-05-11T04:34:40.098Z,10.14
2023-05-11T04:37:08.782Z,10.13
2023-05-11T04:39:37.526Z,10.07
2023-05-11T04:42:05.370Z,9.97
2023-05-11T04:44:32.552Z,9.96
2023-05-11T04:46:59.819Z,9.91
2023-05-11T04:49:27.002Z,9.85
2023-05-11T04:51:54.176Z,10.02
2023-05-11T04:54:21.262Z,9.96
2023-05-11T04:56:49.764Z,9.99
2023-05-11T04:59:16.985Z,9.96
2023-05-11T05:01:44.797Z,9.84
2023-05-11T05:04:12.004Z,9.85
2023-05-11T05:06:39.270Z,9.88
2023-05-11T05:09:06.804Z,9.84
2023-05-11T05:11:33.895Z,9.86
2023-05-11T05:14:01.624Z,9.84
2023-05-11T05:16:31.543Z,9.86
2023-05-11T05:18:59.624Z,9.82
2023-05-11T05:21:27.331Z,9.81
2023-05-11T05:23:56.292Z,9.82
2023-05-11T05:26:23.330Z,9.75
2023-05-11T05:28:50.948Z,9.80
2023-05-11T05:31:20.448Z,9.85
2023-05-11T05:33:47.527Z,9.93
2023-05-11T05:36:14.679Z,9.89
2023-05-11T05:38:41.878Z,9.91
2023-05-11T05:41:09.096Z,9.96
2023-05-11T05:43:40.296Z,9.86
2023-05-11T05:46:07.996Z,9.89
2023-05-11T05:48:35.109Z,9.92
2023-05-11T05:51:02.388Z,9.87
2023-05-11T05:53:29.699Z,9.94
2023-05-11T05:55:56.775Z,9.96
2023-05-11T05:58:24.494Z,9.94
2023-05-11T06:00:52.412Z,10.05
2023-05-11T06:03:19.579Z,9.95
2023-05-11T06:05:47.052Z,9.98
2023-05-11T06:08:14.796Z,9.97
2023-05-11T06:10:41.903Z,9.94
2023-05-11T06:13:10.801Z,9.97
2023-05-11T06:15:43.057Z,9.95
2023-05-11T06:18:18.671Z,10.00
2023-05-11T06:20:46.070Z,9.96
2023-05-11T06:23:15.305Z,9.94
2023-05-11T06:25:43.879Z,9.89
2023-05-11T06:28:12.397Z,9.95
2023-05-11T06:30:39.494Z,10.00
2023-05-11T06:33:08.688Z,10.04
2023-05-11T06:35:37.705Z,10.02
2023-05-11T06:38:07.077Z,10.07
2023-05-11T06:40:36.104Z,10.08
2023-05-11T06:43:03.257Z,10.11
2023-05-11T06:45:46.484Z,10.07
2023-05-11T06:48:14.664Z,10.10
2023-05-11T06:50:41.792Z,10.14
2023-05-11T06:53:13.204Z,10.09
2023-05-11T06:55:40.230Z,10.10
2023-05-11T06:58:07.268Z,10.12
2023-05-11T07:00:34.348Z,10.06
2023-05-11T07:03:01.501Z,10.01
2023-05-11T07:05:28.664Z,10.00
2023-05-11T07:07:55.756Z,10.05
2023-05-11T07:10:23.213Z,10.08
2023-05-11T07:12:50.538Z,10.07
2023-05-11T07:15:17.639Z,10.10
2023-05-11T07:17:47.854Z,10.13
2023-05-11T07:20:15.384Z,10.10
2023-05-11T07:22:42.453Z,10.08
2023-05-11T07:25:09.941Z,10.07
2023-05-11T07:27:37.222Z,10.13
2023-05-11T07:30:04.564Z,10.18
2023-05-11T07:32:32.605Z,10.23
2023-05-11T07:34:59.684Z,10.21
2023-05-11T07:37:27.007Z,10.25
2023-05-11T07:39:54.437Z,10.21
2023-05-11T07:42:21.572Z,10.21
2023-05-11T07:44:48.664Z,10.22
2023-05-11T07:47:16.448Z,10.26
2023-05-11T07:49:44.333Z,10.31
2023-05-11T07:52:11.792Z,10.29
2023-05-11T07:54:40.279Z,10.24
2023-05-11T07:57:07.861Z,10.20
2023-05-11T07:59:35.021Z,10.24
2023-05-11T08:02:02.227Z,10.29
2023-05-11T08:04:30.346Z,10.31
2023-05-11T08:06:58.380Z,10.39
2023-05-11T08:09:25.515Z,10.43
2023-05-11T08:11:53.997Z,10.45
2023-05-11T08:14:21.234Z,10.51
2023-05-11T08:16:49.661Z,10.46
2023-05-11T08:19:16.823Z,10.46
2023-05-11T08:21:44.989Z,10.49
2023-05-11T08:24:12.410Z,10.45
2023-05-11T08:26:39.564Z,10.42
2023-05-11T08:29:07.388Z,10.38
2023-05-11T08:31:34.466Z,10.37
2023-05-11T08:34:02.038Z,10.44
2023-05-11T08:36:29.236Z,10.55
2023-05-11T08:38:59.073Z,10.53
2023-05-11T08:41:26.449Z,10.60
2023-05-11T08:43:54.349Z,10.56
2023-05-11T08:46:22.909Z,10.60
2023-05-11T08:48:50.609Z,10.62
2023-05-11T08:51:17.679Z,10.64
2023-05-11T08:53:44.894Z,10.69
2023-05-11T08:56:12.218Z,10.78
2023-05-11T08:58:39.899Z,10.81
2023-05-11T09:01:07.439Z,10.88
2023-05-11T09:03:35.554Z,10.78
2023-05-11T09:06:05.596Z,10.81
2023-05-11T09:08:34.138Z,10.81
2023-05-11T09:11:01.436Z,10.80
2023-05-11T09:13:29.318Z,10.81
2023-05-11T09:15:56.374Z,10.73
2023-05-11T09:18:23.491Z,10.81
2023-05-11T09:20:51.968Z,10.86
2023-05-11T09:23:19.116Z,10.88
2023-05-11T09:25:48.817Z,10.84
2023-05-11T09:28:25.525Z,10.89
2023-05-11T09:30:53.379Z,10.87
2023-05-11T09:33:24.199Z,10.88
2023-05-11T09:35:51.890Z,10.89
2023-05-11T09:38:23.145Z,10.88
2023-05-11T09:40:52.061Z,10.94
2023-05-11T09:43:20.574Z,10.96
2023-05-11T09:45:48.680Z,10.87
2023-05-11T09:48:21.998Z,10.88
2023-05-11T09:50:50.124Z,10.95
2023-05-11T09:53:17.319Z,10.98
2023-05-11T09:55:56.693Z,10.97
2023-05-11T09:58:23.953Z,10.97
2023-05-11T10:00:51.844Z,10.89
2023-05-11T10:03:19.492Z,10.95
2023-05-11T10:05:57.070Z,10.92
2023-05-11T10:08:31.180Z,10.89
2023-05-11T10:10:58.274Z,10.99
2023-05-11T10:13:27.047Z,11.04
2023-05-11T10:15:55.090Z,10.95
2023-05-11T10:18:22.364Z,10.91
2023-05-11T10:20:49.611Z,10.94
2023-05-11T10:23:17.713Z,11.00
2023-05-11T10:25:45.115Z,10.99
2023-05-11T10:28:12.352Z,10.96
2023-05-11T10:30:40.799Z,11.03
2023-05-11T10:33:08.582Z,10.99
2023-05-11T10:35:37.910Z,10.96
2023-05-11T10:38:06.582Z,10.99
2023-05-11T10:40:38.515Z,10.95
2023-05-11T10:43:14.858Z,11.02
2023-05-11T10:45:54.247Z,11.11
2023-05-11T10:48:31.648Z,11.15
2023-05-11T10:51:01.877Z,11.18
2023-05-11T10:53:40.566Z,11.21
2023-05-11T10:56:09.991Z,11.17
2023-05-11T10:58:52.862Z,11.19
2023-05-11T11:01:29.144Z,11.17
2023-05-11T11:03:57.647Z,11.24
2023-05-11T11:06:25.732Z,11.34
2023-05-11T11:08:57.364Z,11.34
2023-05-11T11:11:30.884Z,11.32
2023-05-11T11:13:58.947Z,11.24
2023-05-11T11:16:26.277Z,11.12
2023-05-11T11:19:13.379Z,11.11
2023-05-11T11:21:41.916Z,11.15
2023-05-11T11:24:09.012Z,11.12
2023-05-11T11:26:51.884Z,11.13
2023-05-11T11:29:19.037Z,11.14
2023-05-11T11:31:46.067Z,11.28
2023-05-11T11:34:33.839Z,11.35
2023-05-11T11:37:03.378Z,11.19
2023-05-11T11:39:42.777Z,11.14
2023-05-11T11:42:10.632Z,11.14
2023-05-11T11:44:38.465Z,11.13
2023-05-11T11:47:15.606Z,11.19
2023-05-11T11:49:43.980Z,11.12
2023-05-11T11:52:11.513Z,11.16
2023-05-11T11:54:39.868Z,11.08
2023-05-11T11:57:44.031Z,11.18
2023-05-11T12:00:12.649Z,11.23
2023-05-11T12:02:41.300Z,11.17
2023-05-11T12:05:12.835Z,11.14
2023-05-11T12:07:41.724Z,11.13
2023-05-11T12:10:11.277Z,11.16
2023-05-11T12:12:38.832Z,11.16
2023-05-11T12:15:06.817Z,11.20
2023-05-11T12:17:37.975Z,11.28
2023-05-11T12:20:12.127Z,11.27
2023-05-11T12:22:39.216Z,11.26
2023-05-11T12:25:06.956Z,11.31
2023-05-11T12:27:34.422Z,11.31
2023-05-11T12:30:01.874Z,11.16
2023-05-11T12:32:30.510Z,11.22
2023-05-11T12:35:01.843Z,11.14
2023-05-11T12:37:32.855Z,11.14
2023-05-11T12:39:59.929Z,11.13
2023-05-11T12:42:27.105Z,11.13
2023-05-11T12:44:54.267Z,10.98
2023-05-11T12:47:21.313Z,11.05
2023-05-11T12:49:48.457Z,11.09
2023-05-11T12:52:15.514Z,11.12
2023-05-11T12:54:48.038Z,11.11
2023-05-11T12:57:25.451Z,11.18
2023-05-11T13:00:14.805Z,11.26
2023-05-11T13:02:44.905Z,11.19
2023-05-11T13:05:13.195Z,11.26
2023-05-11T13:07:40.555Z,11.21
2023-05-11T13:10:08.036Z,11.15
2023-05-11T13:12:47.270Z,11.15
2023-05-11T13:15:14.369Z,11.13
2023-05-11T13:17:42.315Z,11.14
2023-05-11T13:20:24.389Z,11.16
2023-05-11T13:22:51.539Z,11.01
2023-05-11T13:25:20.457Z,11.01
2023-05-11T13:27:47.814Z,11.09
2023-05-11T13:30:15.019Z,11.08
2023-05-11T13:32:42.201Z,11.05
2023-05-11T13:35:09.411Z,11.14
2023-05-11T13:37:36.555Z,11.13
2023-05-11T13:40:04.008Z,11.19
2023-05-11T13:42:31.186Z,11.19
2023-05-11T13:44:58.416Z,11.25
2023-05-11T13:47:25.572Z,11.25
2023-05-11T13:49:54.582Z,11.23
2023-05-11T13:52:22.386Z,11.34
2023-05-11T13:54:49.520Z,11.38
2023-05-11T13:57:16.729Z,11.23
2023-05-11T13:59:43.830Z,11.20
2023-05-11T14:02:11.715Z,11.23
2023-05-11T14:04:40.325Z,11.19
2023-05-11T14:07:07.665Z,11.22
2023-05-11T14:09:36.979Z,11.25
2023-05-11T14:12:04.241Z,11.27
2023-05-11T14:14:31.262Z,11.33
2023-05-11T14:16:58.440Z,11.36
2023-05-11T14:19:25.574Z,11.23
2023-05-11T14:21:52.779Z,11.24
2023-05-11T14:24:20.601Z,11.34
2023-05-11T14:26:47.739Z,11.32
2023-05-11T14:29:14.836Z,11.29
2023-05-11T14:31:42.434Z,11.21
2023-05-11T14:34:09.542Z,11.25
2023-05-11T14:36:36.686Z,11.36
2023-05-11T14:39:04.005Z,11.32
2023-05-11T14:41:31.049Z,11.20
2023-05-11T14:43:58.052Z,11.19
2023-05-11T14:46:26.706Z,11.27
2023-05-11T14:48:54.086Z,11.27
2023-05-11T14:51:21.183Z,11.34
2023-05-11T14:53:48.201Z,11.35
2023-05-11T14:56:15.298Z,11.37
2023-05-11T14:58:42.311Z,11.41
2023-05-11T15:01:09.356Z,11.30
2023-05-11T15:03:37.331Z,11.35
2023-05-11T15:06:04.520Z,11.37
2023-05-11T15:08:32.069Z,11.41
2023-05-11T15:10:59.274Z,11.42
2023-05-11T15:13:26.690Z,11.42
2023-05-11T15:15:53.843Z,11.35
2023-05-11T15:18:21.055Z,11.36
2023-05-11T15:20:48.399Z,11.26
2023-05-11T15:23:16.749Z,11.23
2023-05-11T15:25:44.724Z,11.25
2023-05-11T15:28:12.224Z,11.23
2023-05-11T15:30:41.345Z,11.12
2023-05-11T15:33:09.025Z,11.09
2023-05-11T15:35:36.746Z,11.07
2023-05-11T15:38:04.129Z,11.00
2023-05-11T15:40:31.249Z,11.02
2023-05-11T15:42:58.880Z,11.12
2023-05-11T15:45:26.192Z,10.93
2023-05-11T15:47:54.183Z,10.92
2023-05-11T15:50:21.976Z,10.80
2023-05-11T15:52:49.293Z,10.77
2023-05-11T15:55:16.384Z,10.77
2023-05-11T15:57:43.494Z,10.80
2023-05-11T16:00:10.936Z,10.74
2023-05-11T16:02:38.125Z,10.73
2023-05-11T16:05:05.924Z,10.60
2023-05-11T16:07:33.049Z,10.67
2023-05-11T16:10:00.350Z,10.72
2023-05-11T16:12:27.510Z,10.59
2023-05-11T16:14:54.523Z,10.59
2023-05-11T16:17:21.650Z,10.55
2023-05-11T16:19:48.804Z,10.54
2023-05-11T16:22:15.861Z,10.53
2023-05-11T16:24:42.917Z,10.56
2023-05-11T16:27:09.942Z,10.48
2023-05-11T16:29:36.974Z,10.47
2023-05-11T16:32:04.132Z,10.26
2023-05-11T16:34:31.360Z,10.30
2023-05-11T16:36:59.372Z,10.20
2023-05-11T16:39:26.851Z,10.26
2023-05-11T16:41:53.954Z,10.30
2023-05-11T16:44:21.146Z,10.05
2023-05-11T16:46:49.168Z,10.10
2023-05-11T16:49:16.559Z,10.05
2023-05-11T16:51:43.762Z,10.15
2023-05-11T16:54:10.808Z,10.21
2023-05-11T16:56:37.897Z,10.16
2023-05-11T16:59:05.071Z,10.01
2023-05-11T17:01:32.390Z,9.99
2023-05-11T17:03:59.505Z,10.03
2023-05-11T17:06:27.436Z,10.10
2023-05-11T17:08:54.712Z,10.09
2023-05-11T17:11:21.798Z,10.14
2023-05-11T17:13:48.945Z,10.05
2023-05-11T17:16:16.195Z,10.07
2023-05-11T17:18:43.511Z,9.90
2023-05-11T17:21:10.777Z,9.91
2023-05-11T17:23:37.895Z,9.87
2023-05-11T17:26:08.471Z,9.86
2023-05-11T17:28:36.171Z,9.85
2023-05-11T17:31:13.397Z,9.67
2023-05-11T17:33:41.631Z,9.73
2023-05-11T17:36:09.497Z,9.74
2023-05-11T17:38:36.902Z,9.90
2023-05-11T17:41:07.587Z,9.89
2023-05-11T17:43:35.765Z,9.82
2023-05-11T17:46:04.196Z,9.81
2023-05-11T17:48:32.015Z,9.84
2023-05-11T17:50:59.270Z,9.86
2023-05-11T17:53:27.239Z,9.85
2023-05-11T17:55:54.345Z,9.85
2023-05-11T17:58:21.395Z,9.94
2023-05-11T18:00:49.445Z,9.69
2023-05-11T18:03:17.215Z,9.73
2023-05-11T18:05:48.431Z,9.71
2023-05-11T18:08:16.376Z,9.69
2023-05-11T18:10:44.113Z,9.60
2023-05-11T18:13:11.278Z,9.59
2023-05-11T18:15:38.456Z,9.70
2023-05-11T18:18:05.576Z,9.75
2023-05-11T18:20:32.654Z,9.73
2023-05-11T18:22:59.752Z,9.68
2023-05-11T18:25:31.618Z,9.75
2023-05-11T18:28:02.170Z,9.73
2023-05-11T18:30:29.736Z,9.69
2023-05-11T18:32:56.965Z,9.67
2023-05-11T18:35:25.242Z,9.57
2023-05-11T18:37:52.407Z,9.63
2023-05-11T18:40:20.064Z,9.64
2023-05-11T18:42:47.464Z,9.71
2023-05-11T18:45:14.630Z,9.55
2023-05-11T18:47:46.278Z,9.53
2023-05-11T18:50:13.801Z,9.54
2023-05-11T18:52:40.995Z,9.42
2023-05-11T18:55:08.650Z,9.64
2023-05-11T18:57:35.886Z,9.75
2023-05-11T19:00:03.795Z,9.71
2023-05-11T19:02:31.880Z,9.66
2023-05-11T19:04:59.066Z,9.73
2023-05-11T19:07:26.126Z,9.68
2023-05-11T19:09:53.121Z,9.52
2023-05-11T19:12:20.277Z,9.63
2023-05-11T19:14:47.685Z,9.58
2023-05-11T19:17:14.849Z,9.52
2023-05-11T19:19:42.062Z,9.50
2023-05-11T19:22:09.514Z,9.55
2023-05-11T19:24:37.292Z,9.48
2023-05-11T19:27:07.735Z,9.55
2023-05-11T19:29:35.529Z,9.60
2023-05-11T19:32:03.072Z,9.52
2023-05-11T19:34:30.324Z,9.56
2023-05-11T19:36:57.349Z,9.42
2023-05-11T19:39:24.608Z,9.52
2023-05-11T19:41:51.824Z,9.54
2023-05-11T19:44:18.909Z,9.45
2023-05-11T19:46:47.001Z,9.49
2023-05-11T19:49:15.128Z,9.38
2023-05-11T19:51:43.080Z,9.25
2023-05-11T19:54:11.082Z,9.36
2023-05-11T19:56:39.286Z,9.31
2023-05-11T19:59:06.330Z,9.34
2023-05-11T20:01:33.508Z,9.31
2023-05-11T20:04:01.186Z,9.41
2023-05-11T20:06:28.912Z,9.34
2023-05-11T20:08:56.499Z,9.19
2023-05-11T20:11:25.304Z,9.30
2023-05-11T20:13:53.768Z,9.13
2023-05-11T20:16:21.049Z,9.18
2023-05-11T20:18:48.389Z,9.14
2023-05-11T20:21:15.857Z,9.09
2023-05-11T20:23:44.075Z,8.96
2023-05-11T20:26:14.211Z,9.10
2023-05-11T20:28:41.321Z,9.19
2023-05-11T20:31:09.636Z,9.14
2023-05-11T20:36:06.847Z,9.14
2023-05-11T20:38:33.945Z,9.11
2023-05-11T20:41:01.050Z,9.11
2023-05-11T20:43:28.240Z,9.25
2023-05-11T20:45:55.487Z,9.14
2023-05-11T20:48:32.361Z,9.07
2023-05-11T20:51:05.954Z,9.16
2023-05-11T20:53:33.331Z,9.19
2023-05-11T20:56:01.950Z,9.08
2023-05-11T20:58:30.807Z,9.16
2023-05-11T21:00:58.052Z,9.14
2023-05-11T21:03:28.070Z,9.11
2023-05-11T21:05:56.229Z,9.14
2023-05-11T21:08:23.354Z,9.15
2023-05-11T21:10:50.570Z,9.08
2023-05-11T21:13:17.721Z,9.02
2023-05-11T21:15:44.828Z,9.04
2023-05-11T21:18:11.936Z,9.09
2023-05-11T21:20:39.113Z,9.09
2023-05-11T21:23:06.183Z,9.15
2023-05-11T21:25:33.247Z,9.12
2023-05-11T21:28:04.074Z,9.14
2023-05-11T21:30:31.182Z,9.14
2023-05-11T21:32:58.269Z,9.12
2023-05-11T21:35:25.325Z,9.12
2023-05-11T21:37:52.414Z,9.12
2023-05-11T21:40:19.820Z,9.10
2023-05-11T21:42:47.110Z,9.12
2023-05-11T21:45:14.295Z,9.06
2023-05-11T21:47:42.109Z,9.05
2023-05-11T21:50:10.778Z,9.10
2023-05-11T21:52:37.924Z,9.10
2023-05-11T21:55:05.320Z,9.07
2023-05-11T21:57:32.455Z,9.09
2023-05-11T21:59:59.527Z,9.11
2023-05-11T22:02:27.303Z,9.15
2023-05-11T22:04:54.423Z,9.08
2023-05-11T22:07:21.452Z,9.11
2023-05-11T22:09:48.549Z,9.07
2023-05-11T22:12:15.553Z,9.05
2023-05-11T22:14:42.586Z,9.04
2023-05-11T22:17:10.865Z,9.01
2023-05-11T22:19:38.026Z,8.97
2023-05-11T22:22:05.210Z,8.99
2023-05-11T22:24:32.275Z,9.06
2023-05-11T22:26:59.432Z,9.10
2023-05-11T22:29:26.587Z,9.08
2023-05-11T22:31:53.796Z,9.13
2023-05-11T22:34:24.351Z,9.12
2023-05-11T22:36:51.464Z,9.13
2023-05-11T22:39:18.831Z,9.09
2023-05-11T22:41:45.989Z,9.08
2023-05-11T22:44:13.158Z,9.06
2023-05-11T22:46:40.198Z,9.11
2023-05-11T22:49:08.333Z,9.16
2023-05-11T22:51:35.410Z,9.04
2023-05-11T22:54:03.437Z,9.03
2023-05-11T22:56:30.897Z,9.07
2023-05-11T22:59:00.979Z,8.99
2023-05-11T23:01:28.422Z,8.98
2023-05-11T23:03:55.788Z,9.04
2023-05-11T23:06:23.351Z,8.96
2023-05-11T23:08:50.627Z,8.95
2023-05-11T23:11:17.653Z,8.98
2023-05-11T23:13:44.809Z,8.97
2023-05-11T23:16:11.990Z,8.95
2023-05-11T23:18:39.348Z,8.91
2023-05-11T23:21:06.554Z,8.92
2023-05-11T23:23:33.619Z,8.89
2023-05-11T23:26:00.634Z,8.85
2023-05-11T23:28:27.696Z,8.95
2023-05-11T23:30:54.747Z,8.90
2023-05-11T23:33:21.864Z,8.83
2023-05-11T23:35:48.991Z,8.90
2023-05-11T23:38:16.812Z,8.95
2023-05-11T23:40:43.908Z,8.97
2023-05-11T23:43:11.108Z,9.00
2023-05-11T23:45:38.242Z,8.96
2023-05-11T23:48:05.636Z,8.95
2023-05-11T23:50:32.758Z,8.96
2023-05-11T23:52:59.821Z,8.91
2023-05-11T23:55:26.976Z,8.85
2023-05-11T23:57:54.527Z,8.81
